createdAt,value
2019-03-13T00:02:03.954Z,2.62
2019-03-13T00:04:32.754Z,2.72
2019-03-13T00:07:01.450Z,2.77
2019-03-13T00:09:30.150Z,3.72
2019-03-13T00:11:58.867Z,2.90
2019-03-13T00:14:27.799Z,4.40
2019-03-13T00:16:56.479Z,5.35
2019-03-13T00:19:25.512Z,6.78
2019-03-13T00:21:54.243Z,4.12
2019-03-13T00:24:23.313Z,4.92
2019-03-13T00:26:52.297Z,4.85
2019-03-13T00:29:21.351Z,5.35
2019-03-13T00:31:50.388Z,4.83
2019-03-13T00:34:19.073Z,6.05
2019-03-13T00:36:48.067Z,5.62
2019-03-13T00:39:16.757Z,7.33
2019-03-13T00:41:45.861Z,8.28
2019-03-13T00:44:14.530Z,6.00
2019-03-13T00:46:43.215Z,5.15
2019-03-13T00:49:11.920Z,6.33
2019-03-13T00:51:40.576Z,7.28
2019-03-13T00:54:09.306Z,6.40
2019-03-13T00:56:38.051Z,7.30
2019-03-13T00:59:07.241Z,8.23
2019-03-13T01:01:44.033Z,9.95
2019-03-13T01:04:17.873Z,7.47
2019-03-13T01:06:50.517Z,8.65
2019-03-13T01:09:19.508Z,8.33
2019-03-13T01:11:48.199Z,9.30
2019-03-13T01:14:17.142Z,9.58
2019-03-13T01:16:46.483Z,8.08
2019-03-13T01:19:15.245Z,9.60
2019-03-13T01:21:43.948Z,9.15
2019-03-13T01:24:12.775Z,11.68
2019-03-13T01:26:41.472Z,10.80
2019-03-13T01:29:10.635Z,9.03
2019-03-13T01:31:49.544Z,8.30
2019-03-13T01:34:43.093Z,8.98
2019-03-13T01:37:12.122Z,11.30
2019-03-13T01:39:40.817Z,10.82
2019-03-13T01:42:09.800Z,10.93
2019-03-13T01:44:40.719Z,9.55
2019-03-13T01:47:08.915Z,11.10
2019-03-13T01:49:37.631Z,10.88
2019-03-13T01:52:06.591Z,9.33
2019-03-13T01:54:35.585Z,10.88
2019-03-13T01:57:04.682Z,10.65
2019-03-13T01:59:33.388Z,13.90
2019-03-13T02:02:02.070Z,9.35
2019-03-13T02:04:31.146Z,10.95
2019-03-13T02:07:00.216Z,8.88
2019-03-13T02:09:29.496Z,10.48
2019-03-13T02:11:58.273Z,13.65
2019-03-13T02:14:27.299Z,10.70
2019-03-13T02:16:56.020Z,9.73
2019-03-13T02:19:26.089Z,13.13
2019-03-13T02:21:55.141Z,10.05
2019-03-13T02:24:23.859Z,10.63
2019-03-13T02:26:52.550Z,10.38
2019-03-13T02:29:22.050Z,11.35
2019-03-13T02:31:50.757Z,11.00
2019-03-13T02:34:19.804Z,13.85
2019-03-13T02:36:48.503Z,14.58
2019-03-13T02:39:17.208Z,12.18
2019-03-13T02:41:46.039Z,11.73
2019-03-13T02:44:15.089Z,12.50
2019-03-13T02:46:43.782Z,11.55
2019-03-13T02:49:12.955Z,10.10
2019-03-13T02:51:41.661Z,10.18
2019-03-13T02:54:10.349Z,15.40
2019-03-13T02:56:39.295Z,14.10
2019-03-13T02:59:07.993Z,14.58
2019-03-13T03:01:41.855Z,13.10
2019-03-13T03:04:12.039Z,13.20
2019-03-13T03:06:40.732Z,11.93
2019-03-13T03:09:09.692Z,11.63
2019-03-13T03:11:38.586Z,16.40
2019-03-13T03:14:07.545Z,12.95
2019-03-13T03:16:36.477Z,13.15
2019-03-13T03:19:05.561Z,13.00
2019-03-13T03:21:34.269Z,11.03
2019-03-13T03:24:03.046Z,11.60
2019-03-13T03:26:31.730Z,16.48
2019-03-13T03:29:00.400Z,13.48
2019-03-13T03:31:29.637Z,12.63
2019-03-13T03:34:03.236Z,13.78
2019-03-13T03:36:32.159Z,11.80
2019-03-13T03:39:01.405Z,11.60
2019-03-13T03:41:30.353Z,15.35
2019-03-13T03:43:59.227Z,12.60
2019-03-13T03:46:27.876Z,9.38
2019-03-13T03:48:56.887Z,9.00
2019-03-13T03:51:25.578Z,9.13
2019-03-13T03:53:54.750Z,13.13
2019-03-13T03:56:23.596Z,12.07
2019-03-13T03:58:52.618Z,11.83
2019-03-13T04:01:21.310Z,11.22
2019-03-13T04:03:50.007Z,13.13
2019-03-13T04:06:18.996Z,13.30
2019-03-13T04:08:48.173Z,6.30
2019-03-13T04:11:17.381Z,10.72
2019-03-13T04:13:46.105Z,10.38
2019-03-13T04:16:14.806Z,10.23
2019-03-13T04:18:43.481Z,7.33
2019-03-13T04:21:12.421Z,12.05
2019-03-13T04:23:41.108Z,14.35
2019-03-13T04:26:12.710Z,10.85
2019-03-13T04:28:40.240Z,10.08
2019-03-13T04:31:08.914Z,8.35
2019-03-13T04:33:37.595Z,6.87
2019-03-13T04:36:06.537Z,10.63
2019-03-13T04:38:35.218Z,9.40
2019-03-13T04:41:04.267Z,9.68
2019-03-13T04:43:32.967Z,13.25
2019-03-13T04:46:01.899Z,9.70
2019-03-13T04:48:30.851Z,11.95
2019-03-13T04:50:59.566Z,13.35
2019-03-13T04:53:28.269Z,12.00
2019-03-13T04:55:57.215Z,12.13
2019-03-13T04:58:26.178Z,17.42
2019-03-13T05:00:54.898Z,13.68
2019-03-13T05:03:23.586Z,8.50
2019-03-13T05:06:01.686Z,9.63
2019-03-13T05:08:54.746Z,7.72
2019-03-13T05:11:23.542Z,8.48
2019-03-13T05:13:52.477Z,6.62
2019-03-13T05:16:21.178Z,13.30
2019-03-13T05:18:49.945Z,11.50
2019-03-13T05:21:18.651Z,11.63
2019-03-13T05:23:49.442Z,7.37
2019-03-13T05:26:18.205Z,12.68
2019-03-13T05:28:46.914Z,14.58
2019-03-13T05:31:15.868Z,11.73
2019-03-13T05:33:44.894Z,9.35
2019-03-13T05:36:16.624Z,7.42
2019-03-13T05:38:45.254Z,14.58
2019-03-13T05:41:13.968Z,11.22
2019-03-13T05:43:42.674Z,13.70
2019-03-13T05:46:11.388Z,13.95
2019-03-13T05:48:40.097Z,13.70
2019-03-13T05:51:09.071Z,11.22
2019-03-13T05:53:38.067Z,11.85
2019-03-13T05:56:07.078Z,15.63
2019-03-13T05:58:36.059Z,14.65
2019-03-13T06:01:04.893Z,7.08
2019-03-13T06:03:33.592Z,14.58
2019-03-13T06:06:02.267Z,14.63
2019-03-13T06:08:31.016Z,16.95
2019-03-13T06:10:59.730Z,13.18
2019-03-13T06:13:28.679Z,14.00
2019-03-13T06:15:57.632Z,17.52
2019-03-13T06:18:26.625Z,19.70
2019-03-13T06:20:55.648Z,13.08
2019-03-13T06:23:24.352Z,10.93
2019-03-13T06:25:53.054Z,8.23
2019-03-13T06:28:22.288Z,11.45
2019-03-13T06:30:51.302Z,16.55
2019-03-13T06:33:20.017Z,15.40
2019-03-13T06:35:49.216Z,14.10
2019-03-13T06:38:18.142Z,11.83
2019-03-13T06:40:46.918Z,15.55
2019-03-13T06:43:15.918Z,20.02
2019-03-13T06:45:44.621Z,11.45
2019-03-13T06:48:13.567Z,14.15
2019-03-13T06:50:42.499Z,16.73
2019-03-13T06:53:11.530Z,19.17
2019-03-13T06:55:40.242Z,16.67
2019-03-13T06:58:09.624Z,19.23
2019-03-13T07:00:48.722Z,15.35
2019-03-13T07:03:45.995Z,16.32
2019-03-13T07:06:30.975Z,14.80
2019-03-13T07:09:18.170Z,11.03
2019-03-13T07:12:04.839Z,15.55
2019-03-13T07:14:42.462Z,20.52
2019-03-13T07:17:30.471Z,21.82
2019-03-13T07:20:16.172Z,13.15
2019-03-13T07:22:54.088Z,15.28
2019-03-13T07:25:37.826Z,19.27
2019-03-13T07:28:28.638Z,18.25
2019-03-13T07:31:09.774Z,31.23
2019-03-13T07:33:56.574Z,15.55
2019-03-13T07:36:44.324Z,36.55
2019-03-13T07:39:19.993Z,17.30
2019-03-13T07:41:56.434Z,15.88
2019-03-13T07:44:42.242Z,21.45
2019-03-13T07:47:48.387Z,24.07
2019-03-13T07:50:34.380Z,23.27
2019-03-13T07:53:20.421Z,17.87
2019-03-13T07:55:59.349Z,21.65
2019-03-13T07:58:40.196Z,12.78
2019-03-13T08:01:19.461Z,18.95
2019-03-13T08:03:53.317Z,18.67
2019-03-13T08:06:41.093Z,18.17
2019-03-13T08:09:27.721Z,33.92
2019-03-13T08:12:12.003Z,40.78
2019-03-13T08:14:59.981Z,52.45
2019-03-13T08:17:43.911Z,15.40
2019-03-13T08:20:40.713Z,21.20
2019-03-13T08:23:27.284Z,99.95
2019-03-13T08:26:03.814Z,15.48
2019-03-13T08:28:42.235Z,13.60
2019-03-13T08:31:16.657Z,34.27
2019-03-13T08:34:12.052Z,33.95
2019-03-13T08:36:59.749Z,14.23
2019-03-13T08:39:36.418Z,16.00
2019-03-13T08:42:23.778Z,21.90
2019-03-13T08:45:07.628Z,18.77
2019-03-13T08:47:45.890Z,16.52
2019-03-13T08:50:25.170Z,13.70
2019-03-13T08:53:11.646Z,29.40
2019-03-13T08:56:12.162Z,16.25
2019-03-13T08:58:54.562Z,19.35
2019-03-13T09:01:41.241Z,27.22
2019-03-13T09:04:43.988Z,15.55
2019-03-13T09:07:24.208Z,13.48
2019-03-13T09:10:07.291Z,19.40
2019-03-13T09:12:48.820Z,10.78
2019-03-13T09:15:24.331Z,19.15
2019-03-13T09:18:10.413Z,12.13
2019-03-13T09:20:57.022Z,13.00
2019-03-13T09:23:56.985Z,18.77
2019-03-13T09:26:53.557Z,10.63
2019-03-13T09:29:53.655Z,16.27
2019-03-13T09:32:44.701Z,20.37
2019-03-13T09:35:34.181Z,27.80
2019-03-13T09:38:11.655Z,11.68
2019-03-13T09:40:58.942Z,12.90
2019-03-13T09:43:45.449Z,12.90
2019-03-13T09:46:48.435Z,14.58
2019-03-13T09:49:51.524Z,18.37
2019-03-13T09:52:31.117Z,16.65
2019-03-13T09:55:09.168Z,28.38
2019-03-13T09:57:50.387Z,37.33
2019-03-13T10:00:29.738Z,35.68
2019-03-13T10:03:16.608Z,35.83
2019-03-13T10:06:10.476Z,25.65
2019-03-13T10:08:58.764Z,15.68
2019-03-13T10:11:42.189Z,15.00
2019-03-13T10:14:20.725Z,25.10
2019-03-13T10:17:17.928Z,32.03
2019-03-13T10:20:06.013Z,10.93
2019-03-13T10:22:50.059Z,41.35
2019-03-13T10:25:31.391Z,21.10
2019-03-13T10:28:05.427Z,10.13
2019-03-13T10:31:02.164Z,28.67
2019-03-13T10:33:42.912Z,15.32
2019-03-13T10:36:39.452Z,21.57
2019-03-13T10:39:17.705Z,8.80
2019-03-13T10:42:10.203Z,35.00
2019-03-13T10:44:44.492Z,40.73
2019-03-13T10:47:24.616Z,36.60
2019-03-13T10:50:02.327Z,19.55
2019-03-13T10:52:50.292Z,11.00
2019-03-13T10:55:43.982Z,5.85
2019-03-13T10:58:31.717Z,29.87
2019-03-13T11:01:22.302Z,44.25
2019-03-13T11:03:59.311Z,26.60
2019-03-13T11:06:54.799Z,22.25
2019-03-13T11:09:26.719Z,8.08
2019-03-13T11:12:29.564Z,8.48
2019-03-13T11:15:03.815Z,5.95
2019-03-13T11:17:43.822Z,6.00
2019-03-13T11:20:22.898Z,32.73
2019-03-13T11:23:01.103Z,28.60
2019-03-13T11:25:48.795Z,14.83
2019-03-13T11:28:28.881Z,6.05
2019-03-13T11:31:24.502Z,17.05
2019-03-13T11:34:12.224Z,10.45
2019-03-13T11:36:58.785Z,16.80
2019-03-13T11:39:36.118Z,12.70
2019-03-13T11:42:16.019Z,16.15
2019-03-13T11:45:15.984Z,19.30
2019-03-13T11:48:04.315Z,26.35
2019-03-13T11:51:00.461Z,9.20
2019-03-13T11:53:41.745Z,27.22
2019-03-13T11:56:29.085Z,7.73
2019-03-13T11:59:09.143Z,13.18
2019-03-13T12:01:55.913Z,10.23
2019-03-13T12:04:42.503Z,3.50
2019-03-13T12:07:33.569Z,28.52
2019-03-13T12:10:11.350Z,4.60
2019-03-13T12:13:10.359Z,19.92
2019-03-13T12:15:56.316Z,7.75
2019-03-13T12:18:30.135Z,26.17
2019-03-13T12:21:17.123Z,8.80
2019-03-13T12:23:52.697Z,13.25
2019-03-13T12:26:31.608Z,12.93
2019-03-13T12:29:09.775Z,6.47
2019-03-13T12:31:54.832Z,3.35
2019-03-13T12:34:29.819Z,12.18
2019-03-13T12:37:16.326Z,26.17
2019-03-13T12:40:22.578Z,40.10
2019-03-13T12:43:10.320Z,17.73
2019-03-13T12:45:43.936Z,7.15
2019-03-13T12:48:35.066Z,4.03
2019-03-13T12:51:20.449Z,6.67
2019-03-13T12:54:06.894Z,7.22
2019-03-13T12:56:56.404Z,3.60
2019-03-13T12:59:37.376Z,7.30
2019-03-13T13:02:28.593Z,5.30
2019-03-13T13:05:15.194Z,4.17
2019-03-13T13:08:01.579Z,6.40
2019-03-13T13:10:48.826Z,5.83
2019-03-13T13:13:33.828Z,8.68
2019-03-13T13:16:16.218Z,5.28
2019-03-13T13:18:53.409Z,6.62
2019-03-13T13:21:22.664Z,4.03
2019-03-13T13:23:51.940Z,5.35
2019-03-13T13:26:20.812Z,7.30
2019-03-13T13:28:49.824Z,5.50
2019-03-13T13:31:18.916Z,5.50
2019-03-13T13:33:47.662Z,8.05
2019-03-13T13:36:16.387Z,6.15
2019-03-13T13:38:45.155Z,5.33
2019-03-13T13:41:14.272Z,6.50
2019-03-13T13:43:43.081Z,5.78
2019-03-13T13:46:21.020Z,8.85
2019-03-13T13:48:49.778Z,4.72
2019-03-13T13:51:18.489Z,8.03
2019-03-13T13:53:47.185Z,7.20
2019-03-13T13:56:15.977Z,7.45
2019-03-13T13:58:44.932Z,8.03
2019-03-13T14:01:13.713Z,11.15
2019-03-13T14:03:42.645Z,9.70
2019-03-13T14:06:11.329Z,4.75
2019-03-13T14:08:40.045Z,6.60
2019-03-13T14:11:19.622Z,3.80
2019-03-13T14:13:48.640Z,3.87
2019-03-13T14:16:17.342Z,4.40
2019-03-13T14:18:46.011Z,6.25
2019-03-13T14:21:15.072Z,3.15
2019-03-13T14:23:44.050Z,4.85
2019-03-13T14:26:12.834Z,5.42
2019-03-13T14:28:41.542Z,3.52
2019-03-13T14:31:10.259Z,3.52
2019-03-13T14:33:39.300Z,4.97
2019-03-13T14:36:08.001Z,4.97
2019-03-13T14:38:38.474Z,4.47
2019-03-13T14:41:07.525Z,4.25
2019-03-13T14:43:36.203Z,2.85
2019-03-13T14:46:04.953Z,4.20
2019-03-13T14:48:33.648Z,2.50
2019-03-13T14:51:02.390Z,2.77
2019-03-13T14:53:31.452Z,4.50
2019-03-13T14:56:00.222Z,3.27
2019-03-13T14:58:28.894Z,1.80
2019-03-13T15:00:58.247Z,2.30
2019-03-13T15:03:27.020Z,2.47
2019-03-13T15:05:55.825Z,3.10
2019-03-13T15:08:24.521Z,4.92
2019-03-13T15:10:53.208Z,2.15
2019-03-13T15:13:22.184Z,1.70
2019-03-13T15:15:51.173Z,3.62
2019-03-13T15:18:19.894Z,2.40
2019-03-13T15:20:48.935Z,2.60
2019-03-13T15:23:17.713Z,2.00
2019-03-13T15:25:46.393Z,2.92
2019-03-13T15:28:17.416Z,3.25
2019-03-13T15:30:47.559Z,3.40
2019-03-13T15:33:16.662Z,2.60
2019-03-13T15:35:45.445Z,2.87
2019-03-13T15:38:14.158Z,2.80
2019-03-13T15:40:43.129Z,4.03
2019-03-13T15:43:12.121Z,4.60
2019-03-13T15:45:40.811Z,3.30
2019-03-13T15:48:09.801Z,3.72
2019-03-13T15:50:38.590Z,3.15
2019-03-13T15:53:07.285Z,4.83
2019-03-13T15:55:36.031Z,4.10
2019-03-13T15:58:04.805Z,3.60
2019-03-13T16:00:33.496Z,4.70
2019-03-13T16:03:02.625Z,5.65
2019-03-13T16:05:31.627Z,3.50
2019-03-13T16:08:00.687Z,5.30
2019-03-13T16:10:29.388Z,5.20
2019-03-13T16:13:03.593Z,11.45
2019-03-13T16:15:33.812Z,5.50
2019-03-13T16:18:02.609Z,8.95
2019-03-13T16:20:31.241Z,6.37
2019-03-13T16:23:00.868Z,8.45
2019-03-13T16:25:30.011Z,8.85
2019-03-13T16:27:58.842Z,10.55
2019-03-13T16:30:29.561Z,6.12
2019-03-13T16:32:58.269Z,6.03
2019-03-13T16:35:27.332Z,5.28
2019-03-13T16:37:56.258Z,8.15
2019-03-13T16:40:25.054Z,9.38
2019-03-13T16:42:53.940Z,10.68
2019-03-13T16:45:22.913Z,12.55
2019-03-13T16:47:51.978Z,11.95
2019-03-13T16:50:20.999Z,10.90
2019-03-13T16:52:49.773Z,13.85
2019-03-13T16:55:18.983Z,15.40
2019-03-13T16:57:47.810Z,10.93
2019-03-13T17:00:25.839Z,15.80
2019-03-13T17:02:54.780Z,7.72
2019-03-13T17:05:24.763Z,7.85
2019-03-13T17:07:53.616Z,10.25
2019-03-13T17:10:22.465Z,8.95
2019-03-13T17:12:51.315Z,10.30
2019-03-13T17:15:20.788Z,10.05
2019-03-13T17:17:49.542Z,9.95
2019-03-13T17:20:20.576Z,14.38
2019-03-13T17:22:49.590Z,13.15
2019-03-13T17:25:18.988Z,14.10
2019-03-13T17:27:47.950Z,16.52
2019-03-13T17:30:26.135Z,16.20
2019-03-13T17:32:55.791Z,14.35
2019-03-13T17:35:24.867Z,14.90
2019-03-13T17:37:53.992Z,16.32
2019-03-13T17:40:23.698Z,18.10
2019-03-13T17:42:52.552Z,17.70
2019-03-13T17:45:21.545Z,16.12
2019-03-13T17:47:50.930Z,21.90
2019-03-13T17:50:19.897Z,17.20
2019-03-13T17:52:49.018Z,17.48
2019-03-13T17:55:18.436Z,16.00
2019-03-13T17:57:47.288Z,17.70
2019-03-13T18:00:25.951Z,19.45
2019-03-13T18:02:54.739Z,18.10
2019-03-13T18:05:23.656Z,19.82
2019-03-13T18:07:52.838Z,16.87
2019-03-13T18:10:21.751Z,15.63
2019-03-13T18:12:50.543Z,16.30
2019-03-13T18:15:19.358Z,21.85
2019-03-13T18:17:48.131Z,18.98
2019-03-13T18:20:17.989Z,20.32
2019-03-13T18:22:46.690Z,19.15
2019-03-13T18:25:18.175Z,20.48
2019-03-13T18:27:46.238Z,25.85
2019-03-13T18:30:19.965Z,20.08
2019-03-13T18:32:48.749Z,16.75
2019-03-13T18:35:18.072Z,15.70
2019-03-13T18:37:47.493Z,22.13
2019-03-13T18:40:17.002Z,16.42
2019-03-13T18:42:45.846Z,15.83
2019-03-13T18:45:17.153Z,16.15
2019-03-13T18:47:45.914Z,21.65
2019-03-13T18:50:16.226Z,25.92
2019-03-13T18:52:44.991Z,25.48
2019-03-13T18:55:15.599Z,20.02
2019-03-13T18:57:44.275Z,19.42
2019-03-13T19:00:21.481Z,25.70
2019-03-13T19:02:50.435Z,41.35
2019-03-13T19:05:19.561Z,22.35
2019-03-13T19:07:48.251Z,26.37
2019-03-13T19:10:17.236Z,19.82
2019-03-13T19:12:46.175Z,17.30
2019-03-13T19:15:19.327Z,17.40
2019-03-13T19:17:47.435Z,17.87
2019-03-13T19:20:17.515Z,15.83
2019-03-13T19:22:46.280Z,16.55
2019-03-13T19:25:15.149Z,17.55
2019-03-13T19:27:44.042Z,20.17
2019-03-13T19:30:21.168Z,19.40
2019-03-13T19:32:51.398Z,19.62
2019-03-13T19:35:21.361Z,21.57
2019-03-13T19:37:50.193Z,25.10
2019-03-13T19:40:19.085Z,20.68
2019-03-13T19:42:48.161Z,19.27
2019-03-13T19:45:19.737Z,20.10
2019-03-13T19:47:48.496Z,17.82
2019-03-13T19:50:17.317Z,24.92
2019-03-13T19:52:47.470Z,19.05
2019-03-13T19:55:16.477Z,20.50
2019-03-13T19:57:45.228Z,33.35
2019-03-13T20:00:15.917Z,25.37
2019-03-13T20:02:44.755Z,20.37
2019-03-13T20:05:14.295Z,26.23
2019-03-13T20:07:43.369Z,22.82
2019-03-13T20:10:32.671Z,18.25
2019-03-13T20:13:01.650Z,19.70
2019-03-13T20:15:32.361Z,25.08
2019-03-13T20:18:01.152Z,27.87
2019-03-13T20:20:29.905Z,23.07
2019-03-13T20:22:59.884Z,26.07
2019-03-13T20:25:28.851Z,17.82
2019-03-13T20:27:57.816Z,21.40
2019-03-13T20:30:26.667Z,27.37
2019-03-13T20:32:58.116Z,20.90
2019-03-13T20:35:26.801Z,21.27
2019-03-13T20:37:55.836Z,24.63
2019-03-13T20:40:25.248Z,22.02
2019-03-13T20:42:54.104Z,20.72
2019-03-13T20:45:23.464Z,17.98
2019-03-13T20:47:52.261Z,24.12
2019-03-13T20:50:35.200Z,29.25
2019-03-13T20:52:52.559Z,22.65
2019-03-13T20:55:21.676Z,25.17
2019-03-13T20:57:50.732Z,24.90
2019-03-13T21:00:22.745Z,22.40
2019-03-13T21:05:21.708Z,20.52
2019-03-13T21:07:50.448Z,17.90
2019-03-13T21:10:19.287Z,22.50
2019-03-13T21:12:48.345Z,23.50
2019-03-13T21:15:17.462Z,20.12
2019-03-13T21:17:46.189Z,17.82
2019-03-13T21:20:16.119Z,22.22
2019-03-13T21:22:45.004Z,19.42
2019-03-13T21:25:14.106Z,17.25
2019-03-13T21:27:42.809Z,18.42
2019-03-13T21:30:30.823Z,21.07
2019-03-13T21:32:59.559Z,19.62
2019-03-13T21:35:28.694Z,20.43
2019-03-13T21:37:57.435Z,19.92
2019-03-13T21:40:26.249Z,24.77
2019-03-13T21:42:55.901Z,19.23
2019-03-13T21:45:24.833Z,17.07
2019-03-13T21:47:53.996Z,17.32
2019-03-13T21:50:22.901Z,20.50
2019-03-13T21:52:51.686Z,17.20
2019-03-13T21:55:20.987Z,26.10
2019-03-13T21:57:51.999Z,21.17
2019-03-13T22:00:22.041Z,20.20
2019-03-13T22:02:51.034Z,17.87
2019-03-13T22:05:25.715Z,19.98
2019-03-13T22:07:50.492Z,24.12
2019-03-13T22:10:19.590Z,21.55
2019-03-13T22:12:48.365Z,24.57
2019-03-13T22:15:17.328Z,21.97
2019-03-13T22:17:46.414Z,22.80
2019-03-13T22:20:15.985Z,25.32
2019-03-13T22:22:44.719Z,32.35
2019-03-13T22:25:13.815Z,25.27
2019-03-13T22:27:42.626Z,31.85
2019-03-13T22:30:15.180Z,30.37
2019-03-13T22:32:43.905Z,33.60
2019-03-13T22:35:13.019Z,34.35
2019-03-13T22:37:41.775Z,30.62
2019-03-13T22:40:10.840Z,24.57
2019-03-13T22:42:39.561Z,33.60
2019-03-13T22:45:09.555Z,37.73
2019-03-13T22:47:43.034Z,28.90
2019-03-13T22:50:10.427Z,28.90
2019-03-13T22:52:39.125Z,31.77
2019-03-13T22:55:08.366Z,42.25
2019-03-13T22:57:37.434Z,31.60
2019-03-13T23:00:13.040Z,42.70
2019-03-13T23:02:41.808Z,24.60
2019-03-13T23:05:10.699Z,28.00
2019-03-13T23:07:39.379Z,24.57
2019-03-13T23:10:25.309Z,31.75
2019-03-13T23:12:54.065Z,27.52
2019-03-13T23:15:22.902Z,31.97
2019-03-13T23:17:51.593Z,41.15
2019-03-13T23:20:20.268Z,23.27
2019-03-13T23:22:48.954Z,23.52
2019-03-13T23:25:17.919Z,22.25
2019-03-13T23:27:46.598Z,22.50
2019-03-13T23:30:15.619Z,25.12
2019-03-13T23:32:44.550Z,25.23
2019-03-13T23:35:13.240Z,23.85
2019-03-13T23:37:42.169Z,28.40
2019-03-13T23:40:10.953Z,24.92
2019-03-13T23:42:39.637Z,25.45
2019-03-13T23:45:08.774Z,32.65
2019-03-13T23:47:37.744Z,27.82
2019-03-13T23:50:08.032Z,30.40
2019-03-13T23:52:36.719Z,26.87
2019-03-13T23:55:05.636Z,31.07
2019-03-13T23:57:34.310Z,30.97
